This is the latest recevied weather packets stored in our database for station/object W9WRP. If no packets are shown the sender has not sent any weather packets the latest 1 day(s).
| Time | Temp. | Humidity | Pressure | Rain* | Wind** | Luminosity | Snow |
|---|---|---|---|---|---|---|---|
| 1777998309 | 21.11° C | 34% | 1014.1 hPa | 0 mm | 0 m/s | 397 W/m² | - |
| 1777998006 | 21.11° C | 34% | 1013.9 hPa | 0 mm | 0.45 m/s, 265° | 326 W/m² | - |
| 1777997702 | 21.11° C | 34% | 1013.9 hPa | 0 mm | 0.45 m/s, 238° | 155 W/m² | - |
| 1777997399 | 20.56° C | 34% | 1013.8 hPa | 0 mm | 0 m/s | 148 W/m² | - |
| 1777997097 | 20° C | 35% | 1014 hPa | 0 mm | 0 m/s | 290 W/m² | - |
| 1777996794 | 20° C | 36% | 1014 hPa | 0 mm | 0 m/s | 167 W/m² | - |
| 1777996490 | 20.56° C | 34% | 1013.8 hPa | 0 mm | 0.45 m/s, 220° | 105 W/m² | - |
| 1777996187 | 20.56° C | 35% | 1014.1 hPa | 0 mm | 0.45 m/s, 237° | 308 W/m² | - |
| 1777995884 | 20° C | 35% | 1014.1 hPa | 0 mm | 0 m/s | 136 W/m² | - |
| 1777995579 | 19.44° C | 36% | 1013.9 hPa | 0 mm | 0.45 m/s, 242° | 118 W/m² | - |
| 1777995272 | 18.89° C | 38% | 1014.2 hPa | 0 mm | 0 m/s | 234 W/m² | - |
| 1777994969 | 18.33° C | 38% | 1014.1 hPa | 0 mm | 0 m/s | 117 W/m² | - |
| 1777994666 | 18.33° C | 38% | 1014.3 hPa | 0 mm | 0 m/s | 93 W/m² | - |
| 1777994366 | 18.33° C | 38% | 1014.3 hPa | 0 mm | 0 m/s | 122 W/m² | - |
| 1777994061 | 18.33° C | 38% | 1014.3 hPa | 0 mm | 0 m/s | 141 W/m² | - |
| 1777993759 | 18.33° C | 38% | 1014.5 hPa | 0 mm | 0 m/s | 131 W/m² | - |
| 1777993450 | 18.33° C | 40% | 1014.3 hPa | 0 mm | 0 m/s | 114 W/m² | - |
| 1777993144 | 17.78° C | 43% | 1014 hPa | 0 mm | 0 m/s | 87 W/m² | - |
| 1777992843 | 17.78° C | 42% | 1014 hPa | 0 mm | 0 m/s | 63 W/m² | - |
| 1777992540 | 17.78° C | 43% | 1014.2 hPa | 0 mm | 0.45 m/s, 220° | 68 W/m² | - |
| 1777992238 | 17.78° C | 43% | 1014.1 hPa | 0 mm | 0.89 m/s, 221° | 52 W/m² | - |
| 1777991935 | 17.78° C | 43% | 1014.2 hPa | 0 mm | 0.45 m/s, 229° | 47 W/m² | - |
| 1777991633 | 17.78° C | 41% | 1014 hPa | 0 mm | 0.45 m/s, 230° | 48 W/m² | - |
| 1777991329 | 17.78° C | 41% | 1013.9 hPa | 0 mm | 0.89 m/s, 232° | 53 W/m² | - |
| 1777991027 | 17.22° C | 43% | 1013.7 hPa | 0 mm | 0.45 m/s, 204° | 54 W/m² | - |
* Rain latest hour (hover to see other rain measurements)
** Current wind speed in m/s (hover to see current wind gust speed)